^^
Historische Daten
 
Tage Summe für August 18, 2017 Einheit:  Metric    English   Beide
« vorheriger Tag
nächster Tag »
Tage Wochen Monate Jahre Benutzerdefiniert
  Aktuell: Max: Min: Durchschnitt:
Temperatur: 18.9 °C 19.7 °C 16.9 °C 18.1 °C
Tau Punkt: 16.3 °C 17.1 °C 15.2 °C 16.1 °C
Luftfeuchte: 85% 91% 85% 89%
Windgeschwindigkeit: 5.6km/h 11.1km/h 0.0km/h 3.7km/h
Wind Böen: 5.6km/h 11.1km/h - -
WindSouth - - South
Luftdruck: 1013.1 hPa 1014.4 hPa 1013.1 hPa -
Niederschlag: 0.0 mm      
Historical Graphs
 
 
Tabellendaten für August 18, 2017
Zeit Temperatur Tau Punkt Luftdruck Wind Windgeschwindigkeit Wind Böen Luftfeuchte Regen Rate (Stunde) Conditions
00:02 19.7 °C 17.1 °C 1014.4 hPa Calm     85% 0.0 mm -RA
00:07 19.7 °C 17.1 °C 1014.4 hPa WSW 3.7 km/h 3.7 km/h 85% 0.0 mm -RA
00:12 19.6 °C 17.0 °C 1014.4 hPa WSW 3.7 km/h   85% 0.0 mm -RA
00:17 19.6 °C 16.9 °C 1014.4 hPa Calm     85% 0.0 mm -RA
00:22 19.6 °C 16.9 °C 1014.4 hPa Calm     85% 0.0 mm -RA
00:27 19.5 °C 16.9 °C 1014.4 hPa WSW 1.9 km/h   85% 0.0 mm -RA
00:32 19.5 °C 16.9 °C 1014.4 hPa WSW 3.7 km/h 3.7 km/h 85% 0.0 mm -RA
00:37 19.4 °C 16.8 °C 1014.1 hPa WSW 1.9 km/h 1.9 km/h 85% 0.0 mm -RA
00:42 19.4 °C 17.1 °C 1014.4 hPa WSW 3.7 km/h 3.7 km/h 86% 0.0 mm -RA
00:47 19.3 °C 16.9 °C 1014.4 hPa WSW 1.9 km/h 1.9 km/h 86% 0.0 mm -RA
00:52 19.3 °C 16.9 °C 1014.1 hPa Calm     86% 0.0 mm -RA
00:57 19.2 °C 17.0 °C 1014.4 hPa Calm     87% 0.0 mm -RA
01:02 19.1 °C 16.9 °C 1014.4 hPa WSW 1.9 km/h   87% 0.0 mm -RA
01:07 19.1 °C 16.8 °C 1014.4 hPa Calm     87% 0.0 mm -RA
01:12 19.0 °C 16.8 °C 1014.1 hPa Calm     87% 0.0 mm -RA
01:17 19.0 °C 16.8 °C 1014.1 hPa Calm     87% 0.0 mm -RA
01:22 18.9 °C 16.7 °C 1014.1 hPa Calm     87% 0.0 mm -RA
01:27 18.9 °C 16.7 °C 1014.1 hPa Calm     87% 0.0 mm -RA
01:32 18.9 °C 16.7 °C 1014.1 hPa WSW 1.9 km/h 1.9 km/h 87% 0.0 mm -RA
01:37 18.8 °C 16.7 °C 1014.1 hPa Calm     88% 0.0 mm -RA
01:42 18.7 °C 16.7 °C 1014.1 hPa WSW 3.2 km/h 3.2 km/h 88% 0.0 mm -RA
01:47 18.6 °C 16.7 °C 1014.1 hPa SW 1.9 km/h 1.9 km/h 89% 0.0 mm -RA
01:52 18.5 °C 16.7 °C 1014.1 hPa Calm     89% 0.0 mm -RA
01:57 18.4 °C 16.6 °C 1014.1 hPa Calm     89% 0.0 mm -RA
02:02 18.4 °C 16.6 °C 1014.1 hPa Calm     89% 0.0 mm -RA
02:07 18.3 °C 16.5 °C 1014.1 hPa Calm     89% 0.0 mm -RA
02:12 18.3 °C 16.6 °C 1014.1 hPa Calm     90% 0.0 mm -RA
02:17 18.2 °C 16.6 °C 1014.1 hPa Calm     90% 0.0 mm -RA
02:22 18.1 °C 16.4 °C 1014.1 hPa Calm   0.2 km/h 90% 0.0 mm -RA
02:27 18.0 °C 16.3 °C 1014.1 hPa SW 1.9 km/h 1.9 km/h 90% 0.0 mm -RA
02:29 18.0 °C 16.3 °C 1014.1 hPa SW 1.9 km/h 1.9 km/h 90% 0.0 mm -RA
02:34 17.9 °C 16.4 °C 1014.1 hPa SW 1.9 km/h 1.9 km/h 91% 0.0 mm -RA
02:39 17.8 °C 16.3 °C 1014.1 hPa SW 3.7 km/h 3.7 km/h 91% 0.0 mm -RA
02:44 17.8 °C 16.3 °C 1014.1 hPa SW 3.7 km/h 3.7 km/h 91% 0.0 mm -RA
02:49 17.7 °C 16.2 °C 1014.1 hPa SW 5.6 km/h 5.6 km/h 91% 0.0 mm -RA
02:54 17.7 °C 16.2 °C 1013.8 hPa SW 3.7 km/h 3.7 km/h 91% 0.0 mm -RA
02:59 17.7 °C 16.2 °C 1013.8 hPa SW 3.7 km/h 3.7 km/h 91% 0.0 mm -RA
03:04 17.7 °C 16.2 °C 1013.8 hPa SW 1.9 km/h 1.9 km/h 91% 0.0 mm -RA
03:09 17.7 °C 16.2 °C 1013.8 hPa SW 3.7 km/h 3.7 km/h 91% 0.0 mm -RA
03:10 17.7 °C 16.2 °C 1013.8 hPa SW 3.7 km/h 3.7 km/h 91% 0.0 mm -RA
03:15 17.7 °C 16.2 °C 1013.8 hPa SW 3.7 km/h 3.7 km/h 91% 0.0 mm -RA
03:20 17.7 °C 16.2 °C 1013.8 hPa SW 3.7 km/h 3.7 km/h 91% 0.0 mm -RA
03:25 17.7 °C 16.2 °C 1013.8 hPa SW 3.7 km/h 3.7 km/h 91% 0.0 mm -RA
03:30 17.7 °C 16.2 °C 1013.8 hPa SW 1.9 km/h 1.9 km/h 91% 0.0 mm -RA
03:35 17.7 °C 16.0 °C 1013.8 hPa SSW 3.7 km/h 3.7 km/h 90% 0.0 mm -RA
03:40 17.7 °C 16.0 °C 1013.8 hPa South 3.7 km/h 3.7 km/h 90% 0.0 mm -RA
03:45 17.7 °C 16.0 °C 1013.8 hPa South 3.7 km/h 3.7 km/h 90% 0.0 mm -RA
03:50 17.8 °C 16.1 °C 1013.8 hPa South 3.7 km/h 3.7 km/h 90% 0.0 mm -RA
03:55 17.8 °C 16.1 °C 1013.8 hPa South 3.7 km/h 3.7 km/h 90% 0.0 mm -RA
04:00 17.8 °C 16.0 °C 1013.8 hPa South 9.3 km/h 9.3 km/h 89% 0.0 mm -RA
04:05 17.8 °C 16.0 °C 1013.8 hPa South 7.4 km/h 7.4 km/h 89% 0.0 mm -RA
04:10 17.9 °C 16.1 °C 1013.8 hPa SSE 3.7 km/h 3.7 km/h 89% 0.0 mm -RA
04:15 17.9 °C 16.1 °C 1013.8 hPa SSE 3.7 km/h 3.7 km/h 89% 0.0 mm -RA
04:20 17.9 °C 16.1 °C 1013.8 hPa SSE 1.9 km/h 1.9 km/h 89% 0.0 mm -RA
04:25 17.9 °C 15.9 °C 1013.8 hPa Calm   1.1 km/h 88% 0.0 mm -RA
04:30 17.9 °C 15.9 °C 1013.4 hPa SSE 3.2 km/h 3.2 km/h 88% 0.0 mm -RA
04:35 17.9 °C 15.9 °C 1013.4 hPa SSE 5.6 km/h 5.6 km/h 88% 0.0 mm -RA
04:40 17.8 °C 15.8 °C 1013.4 hPa SSE 3.7 km/h 3.7 km/h 88% 0.0 mm -RA
04:45 17.7 °C 15.7 °C 1013.4 hPa SSE 3.7 km/h 3.7 km/h 88% 0.0 mm -RA
04:50 17.7 °C 15.7 °C 1013.4 hPa SSE 3.7 km/h 3.7 km/h 88% 0.0 mm -RA
04:55 17.7 °C 15.8 °C 1013.4 hPa SSE 3.7 km/h 3.7 km/h 89% 0.0 mm -RA
05:00 17.6 °C 15.7 °C 1013.8 hPa SSE 5.6 km/h 5.6 km/h 89% 0.0 mm -RA
05:05 17.4 °C 15.6 °C 1013.8 hPa SSE 6.4 km/h 6.4 km/h 89% 0.0 mm -RA
05:10 17.4 °C 15.6 °C 1013.4 hPa SSE 5.6 km/h 5.6 km/h 89% 0.0 mm -RA
05:16 17.3 °C 15.5 °C 1013.4 hPa SSE 3.7 km/h 3.7 km/h 89% 0.0 mm -RA
05:18 17.3 °C 15.4 °C 1013.4 hPa SSE 5.6 km/h 5.6 km/h 89% 0.0 mm -RA
05:21 17.3 °C 15.4 °C 1013.4 hPa SSE 3.7 km/h 3.7 km/h 89% 0.0 mm -RA
05:23 17.3 °C 15.4 °C 1013.8 hPa SSE 1.9 km/h 1.9 km/h 89% 0.0 mm -RA
05:25 17.3 °C 15.4 °C 1013.8 hPa SSE 3.7 km/h 3.7 km/h 89% 0.0 mm -RA
05:30 17.2 °C 15.4 °C 1013.4 hPa SSE 5.6 km/h 5.6 km/h 89% 0.0 mm -RA
05:31 17.2 °C 15.4 °C 1013.4 hPa SSE 5.6 km/h 5.6 km/h 89% 0.0 mm -RA
05:36 17.2 °C 15.4 °C 1013.8 hPa SSE 5.6 km/h 5.6 km/h 89% 0.0 mm -RA
05:41 17.2 °C 15.3 °C 1013.4 hPa SSE 3.7 km/h 3.7 km/h 89% 0.0 mm -RA
05:46 17.2 °C 15.3 °C 1013.8 hPa SSE 3.7 km/h 3.7 km/h 89% 0.0 mm -RA
05:51 17.1 °C 15.4 °C 1013.8 hPa SSE 5.6 km/h 5.6 km/h 90% 0.0 mm -RA
06:01 17.1 °C 15.4 °C 1013.8 hPa SSE 3.7 km/h 3.7 km/h 90% 0.0 mm -RA
06:06 17.0 °C 15.3 °C 1013.4 hPa SSE 3.7 km/h 3.7 km/h 90% 0.0 mm -RA
06:11 16.9 °C 15.3 °C 1013.4 hPa SSE 5.6 km/h 5.6 km/h 90% 0.0 mm -RA
06:16 16.9 °C 15.3 °C 1013.4 hPa SSE 7.4 km/h 7.4 km/h 90% 0.0 mm -RA
06:21 16.9 °C 15.2 °C 1013.1 hPa SSE 6.4 km/h 6.4 km/h 90% 0.0 mm -RA
06:26 16.9 °C 15.3 °C 1013.4 hPa SSE 5.6 km/h 5.6 km/h 90% 0.0 mm -RA
06:31 16.9 °C 15.3 °C 1013.4 hPa SSE 7.4 km/h 7.4 km/h 90% 0.0 mm -RA
06:36 17.0 °C 15.3 °C 1013.4 hPa SSE 7.4 km/h 7.4 km/h 90% 0.0 mm -RA
06:41 17.1 °C 15.4 °C 1013.4 hPa SE 6.4 km/h 6.4 km/h 90% 0.0 mm -RA
06:46 17.0 °C 15.3 °C 1013.4 hPa South 7.4 km/h 7.4 km/h 90% 0.0 mm -RA
06:51 17.1 °C 15.4 °C 1013.4 hPa SSE 8.0 km/h 8.0 km/h 90% 0.0 mm -RA
06:56 17.1 °C 15.4 °C 1013.4 hPa SSE 4.8 km/h 4.8 km/h 90% 0.0 mm -RA
07:01 17.2 °C 15.6 °C 1013.4 hPa South 11.1 km/h 11.1 km/h 90% 0.0 mm -RA
07:06 17.4 °C 15.7 °C 1013.4 hPa South 6.4 km/h 6.4 km/h 90% 0.0 mm -RA
07:11 17.6 °C 15.7 °C 1013.4 hPa South 7.4 km/h 7.4 km/h 89% 0.0 mm -RA
07:16 17.7 °C 15.9 °C 1013.4 hPa SSE 6.4 km/h 6.4 km/h 89% 0.0 mm -RA
07:21 17.8 °C 15.8 °C 1013.4 hPa SSW 5.6 km/h 5.6 km/h 88% 0.0 mm -RA
07:26 17.9 °C 15.9 °C 1013.4 hPa South 5.6 km/h 5.6 km/h 88% 0.0 mm -RA
07:31 18.0 °C 16.0 °C 1013.4 hPa South 1.9 km/h 1.9 km/h 88% 0.0 mm -RA
07:34 18.1 °C 15.8 °C 1013.4 hPa South 5.6 km/h 5.6 km/h 87% 0.0 mm -RA
07:39 18.1 °C 15.8 °C 1013.1 hPa South 1.9 km/h 1.9 km/h 87% 0.0 mm -RA
07:44 18.2 °C 15.9 °C 1013.1 hPa South 3.7 km/h 3.7 km/h 87% 0.0 mm -RA
07:49 18.2 °C 16.0 °C 1013.1 hPa Calm     87% 0.0 mm -RA
07:54 18.2 °C 16.0 °C 1013.1 hPa South 1.9 km/h   87% 0.0 mm -RA
07:59 18.3 °C 16.1 °C 1013.1 hPa South 5.6 km/h 5.6 km/h 87% 0.0 mm -RA
08:04 18.4 °C 16.4 °C 1013.1 hPa South 1.9 km/h   88% 0.0 mm -RA
08:09 18.6 °C 16.3 °C 1013.1 hPa SSE 6.4 km/h 6.4 km/h 87% 0.0 mm -RA
08:14 18.6 °C 16.4 °C 1013.1 hPa SSE 3.7 km/h 3.7 km/h 87% 0.0 mm -RA
08:19 18.7 °C 16.5 °C 1013.4 hPa South 5.6 km/h 5.6 km/h 87% 0.0 mm -RA
08:24 18.8 °C 16.4 °C 1013.1 hPa SSE 9.3 km/h 9.3 km/h 86% 0.0 mm -RA
08:29 18.8 °C 16.4 °C 1013.4 hPa SSE 5.6 km/h 5.6 km/h 86% 0.0 mm -RA
08:34 18.8 °C 16.3 °C 1013.4 hPa SSE 11.1 km/h 11.1 km/h 85% 0.0 mm -RA
08:39 18.8 °C 16.2 °C 1013.4 hPa South 5.6 km/h 5.6 km/h 85% 0.0 mm -RA
08:44 18.8 °C 16.2 °C 1013.1 hPa SSE 7.4 km/h 7.4 km/h 85% 0.0 mm -RA
08:49 18.9 °C 16.3 °C 1013.1 hPa South 5.6 km/h 5.6 km/h 85% 0.0 mm -RA
BSWETTER.DE
Compliments of Weather Underground - 2.25 mb
Besucherstatistik
Besucher gesamt: 789.306
Besucher heute: 362
Besucher gestern: 1.169
Besucher Ø : 987,77
gerade online: 15
max. online: 119
Seitenaufrufe heute: 808
Seitenaufrufe diese Seite: 1.628
Seitenaufrufe gesamt: 2.477.107
counter Statistiken